createdAt,value
2022-12-19T00:00:04.294Z,-1.40
2022-12-19T00:01:04.314Z,-1.37
2022-12-19T00:02:04.452Z,-1.39
2022-12-19T00:03:04.526Z,-1.39
2022-12-19T00:04:07.799Z,-1.36
2022-12-19T00:05:04.229Z,-1.36
2022-12-19T00:06:04.243Z,-1.39
2022-12-19T00:07:04.228Z,-1.40
2022-12-19T00:08:04.645Z,-1.46
2022-12-19T00:09:05.407Z,-1.44
2022-12-19T00:10:04.235Z,-1.44
2022-12-19T00:11:05.198Z,-1.47
2022-12-19T00:12:04.236Z,-1.46
2022-12-19T00:13:04.251Z,-1.43
2022-12-19T00:14:04.199Z,-1.39
2022-12-19T00:15:04.261Z,-1.37
2022-12-19T00:16:04.215Z,-1.40
2022-12-19T00:17:04.124Z,-1.34
2022-12-19T00:18:04.115Z,-1.33
2022-12-19T00:19:04.135Z,-1.34
2022-12-19T00:20:04.095Z,-1.31
2022-12-19T00:21:04.124Z,-1.36
2022-12-19T00:22:08.274Z,-1.34
2022-12-19T00:23:04.087Z,-1.37
2022-12-19T00:24:08.126Z,-1.40
2022-12-19T00:25:04.040Z,-1.40
2022-12-19T00:26:04.057Z,-1.44
2022-12-19T00:27:04.037Z,-1.44
2022-12-19T00:28:04.015Z,-1.46
2022-12-19T00:29:04.039Z,-1.51
2022-12-19T00:30:04.031Z,-1.44
2022-12-19T00:31:04.023Z,-1.46
2022-12-19T00:32:04.169Z,-1.47
2022-12-19T00:33:03.975Z,-1.41
2022-12-19T00:34:03.960Z,-1.43
2022-12-19T00:35:04.002Z,-1.41
2022-12-19T00:36:03.963Z,-1.39
2022-12-19T00:37:03.923Z,-1.40
2022-12-19T00:38:03.938Z,-1.39
2022-12-19T00:39:07.739Z,-1.43
2022-12-19T00:40:03.916Z,-1.41
2022-12-19T00:41:03.915Z,-1.37
2022-12-19T00:42:03.901Z,-1.40
2022-12-19T00:43:03.897Z,-1.40
2022-12-19T00:44:03.857Z,-1.36
2022-12-19T00:45:03.869Z,-1.34
2022-12-19T00:46:03.908Z,-1.34
2022-12-19T00:47:03.860Z,-1.31
2022-12-19T00:48:03.835Z,-1.29
2022-12-19T00:49:03.905Z,-1.26
2022-12-19T00:50:03.798Z,-1.23
2022-12-19T00:51:03.822Z,-1.22
2022-12-19T00:52:03.800Z,-1.18
2022-12-19T00:53:03.769Z,-1.16
2022-12-19T00:54:03.959Z,-1.19
2022-12-19T00:55:03.803Z,-1.15
2022-12-19T00:56:03.795Z,-1.19
2022-12-19T00:57:03.734Z,-1.21
2022-12-19T00:58:03.722Z,-1.22
2022-12-19T00:59:03.730Z,-1.19
2022-12-19T01:00:03.716Z,-1.15
2022-12-19T01:01:03.871Z,-1.11
2022-12-19T01:02:03.781Z,-1.07
2022-12-19T01:03:03.697Z,-1.00
2022-12-19T01:05:03.691Z,-0.92
2022-12-19T01:06:03.665Z,-0.86
2022-12-19T01:07:03.655Z,-0.90
2022-12-19T01:08:03.638Z,-0.84
2022-12-19T01:09:03.633Z,-0.89
2022-12-19T01:10:03.622Z,-0.89
2022-12-19T01:11:03.626Z,-0.90
2022-12-19T01:12:03.613Z,-0.90
2022-12-19T01:13:03.628Z,-0.97
2022-12-19T01:14:03.587Z,-1.01
2022-12-19T01:15:04.996Z,-1.10
2022-12-19T01:16:03.772Z,-1.21
2022-12-19T01:17:03.572Z,-1.22
2022-12-19T01:18:03.546Z,-1.23
2022-12-19T01:19:03.573Z,-1.28
2022-12-19T01:20:03.531Z,-1.29
2022-12-19T01:21:03.603Z,-1.26
2022-12-19T01:22:03.495Z,-1.33
2022-12-19T01:23:03.522Z,-1.31
2022-12-19T01:24:03.473Z,-1.31
2022-12-19T01:25:03.480Z,-1.34
2022-12-19T01:26:03.463Z,-1.29
2022-12-19T01:27:03.592Z,-1.33
2022-12-19T01:28:03.435Z,-1.29
2022-12-19T01:29:03.447Z,-1.31
2022-12-19T01:30:03.458Z,-1.26
2022-12-19T01:31:03.410Z,-1.28
2022-12-19T01:32:03.473Z,-1.31
2022-12-19T01:33:03.415Z,-1.33
2022-12-19T01:34:03.376Z,-1.34
2022-12-19T01:35:03.453Z,-1.33
2022-12-19T01:36:03.393Z,-1.29
2022-12-19T01:37:03.397Z,-1.28
2022-12-19T01:38:09.165Z,-1.26
2022-12-19T01:39:03.349Z,-1.21
2022-12-19T01:40:03.323Z,-1.21
2022-12-19T01:41:03.324Z,-1.18
2022-12-19T01:42:03.396Z,-1.18
2022-12-19T01:43:03.310Z,-1.18
2022-12-19T01:44:03.306Z,-1.16
2022-12-19T01:45:03.280Z,-1.15
2022-12-19T01:46:03.400Z,-1.16
2022-12-19T01:47:03.286Z,-1.16
2022-12-19T01:48:03.266Z,-1.13
2022-12-19T01:49:03.282Z,-1.18
2022-12-19T01:50:03.243Z,-1.18
2022-12-19T01:51:03.246Z,-1.18
2022-12-19T01:52:03.234Z,-1.22
2022-12-19T01:53:03.222Z,-1.22
2022-12-19T01:54:03.184Z,-1.25
2022-12-19T01:55:03.213Z,-1.26
2022-12-19T01:56:06.939Z,-1.28
2022-12-19T01:57:03.133Z,-1.31
2022-12-19T01:58:03.182Z,-1.31
2022-12-19T01:59:06.339Z,-1.29
2022-12-19T02:00:03.117Z,-1.29
2022-12-19T02:01:03.128Z,-1.26
2022-12-19T02:02:03.269Z,-1.26
2022-12-19T02:03:03.202Z,-1.21
2022-12-19T02:04:03.091Z,-1.16
2022-12-19T02:05:03.067Z,-1.16
2022-12-19T02:06:03.051Z,-1.13
2022-12-19T02:07:06.266Z,-1.05
2022-12-19T02:08:03.066Z,-1.00
2022-12-19T02:09:03.068Z,-0.98
2022-12-19T02:10:03.040Z,-0.97
2022-12-19T02:11:03.047Z,-0.98
2022-12-19T02:12:02.992Z,-0.98
2022-12-19T02:13:02.984Z,-1.04
2022-12-19T02:14:03.274Z,-1.11
2022-12-19T02:15:03.640Z,-1.18
2022-12-19T02:16:02.956Z,-1.19
2022-12-19T02:17:03.060Z,-1.22
2022-12-19T02:18:02.945Z,-1.22
2022-12-19T02:19:02.953Z,-1.22
2022-12-19T02:20:02.974Z,-1.16
2022-12-19T02:21:02.920Z,-1.21
2022-12-19T02:22:02.900Z,-1.22
2022-12-19T02:23:02.886Z,-1.16
2022-12-19T02:24:02.923Z,-1.15
2022-12-19T02:25:02.969Z,-1.16
2022-12-19T02:26:02.861Z,-1.11
2022-12-19T02:27:02.873Z,-1.08
2022-12-19T02:28:02.880Z,-1.08
2022-12-19T02:29:02.842Z,-1.10
2022-12-19T02:30:02.859Z,-1.11
2022-12-19T02:31:11.343Z,-1.16
2022-12-19T02:32:02.843Z,-1.13
2022-12-19T02:33:02.806Z,-1.16
2022-12-19T02:34:03.052Z,-1.10
2022-12-19T02:35:02.820Z,-1.13
2022-12-19T02:36:02.801Z,-1.10
2022-12-19T02:37:02.761Z,-1.07
2022-12-19T02:38:02.765Z,-1.10
2022-12-19T02:39:02.797Z,-1.16
2022-12-19T02:40:02.783Z,-1.15
2022-12-19T02:41:02.765Z,-1.16
2022-12-19T02:42:02.734Z,-1.15
2022-12-19T02:43:02.746Z,-1.16
2022-12-19T02:44:02.725Z,-1.13
2022-12-19T02:45:02.703Z,-1.15
2022-12-19T02:46:02.745Z,-1.10
2022-12-19T02:47:02.688Z,-1.07
2022-12-19T02:48:08.421Z,-1.04
2022-12-19T02:49:02.677Z,-1.03
2022-12-19T02:50:02.710Z,-1.03
2022-12-19T02:51:02.662Z,-1.00
2022-12-19T02:52:02.640Z,-1.03
2022-12-19T02:53:02.659Z,-1.00
2022-12-19T02:54:02.606Z,-0.97
2022-12-19T02:55:02.609Z,-0.98
2022-12-19T02:56:03.982Z,-0.98
2022-12-19T02:57:02.632Z,-0.98
2022-12-19T02:58:02.576Z,-0.98
2022-12-19T02:59:02.576Z,-1.03
2022-12-19T03:00:02.956Z,-0.98
2022-12-19T03:01:02.613Z,-0.98
2022-12-19T03:02:02.745Z,-1.00
2022-12-19T03:03:02.663Z,-0.94
2022-12-19T03:04:02.549Z,-0.97
2022-12-19T03:05:02.509Z,-1.00
2022-12-19T03:06:02.511Z,-0.94
2022-12-19T03:07:02.496Z,-0.97
2022-12-19T03:08:02.484Z,-0.90
2022-12-19T03:09:02.515Z,-0.92
2022-12-19T03:10:02.469Z,-0.92
2022-12-19T03:11:02.459Z,-0.92
2022-12-19T03:12:02.460Z,-0.95
2022-12-19T03:13:02.525Z,-0.98
2022-12-19T03:14:02.430Z,-0.98
2022-12-19T03:15:02.428Z,-0.98
2022-12-19T03:16:02.412Z,-1.03
2022-12-19T03:17:02.508Z,-1.01
2022-12-19T03:18:02.413Z,-1.00
2022-12-19T03:19:02.403Z,-1.03
2022-12-19T03:20:02.393Z,-1.03
2022-12-19T03:21:02.391Z,-1.04
2022-12-19T03:22:02.361Z,-1.04
2022-12-19T03:23:02.352Z,-1.03
2022-12-19T03:24:02.397Z,-1.00
2022-12-19T03:25:02.352Z,-1.01
2022-12-19T03:26:02.330Z,-1.00
2022-12-19T03:27:02.424Z,-1.00
2022-12-19T03:28:02.323Z,-0.95
2022-12-19T03:29:02.328Z,-0.90
2022-12-19T03:30:02.349Z,-0.89
2022-12-19T03:31:02.488Z,-0.81
2022-12-19T03:32:02.281Z,-0.78
2022-12-19T03:33:02.520Z,-0.79
2022-12-19T03:34:02.261Z,-0.79
2022-12-19T03:35:02.270Z,-0.76
2022-12-19T03:36:02.278Z,-0.71
2022-12-19T03:37:02.264Z,-0.67
2022-12-19T03:38:02.239Z,-0.64
2022-12-19T03:39:02.224Z,-0.64
2022-12-19T03:40:02.213Z,-0.64
2022-12-19T03:41:02.231Z,-0.64
2022-12-19T03:42:02.331Z,-0.61
2022-12-19T03:43:02.174Z,-0.60
2022-12-19T03:44:02.203Z,-0.60
2022-12-19T03:45:02.390Z,-0.64
2022-12-19T03:46:02.224Z,-0.67
2022-12-19T03:47:02.156Z,-0.71
2022-12-19T03:48:02.871Z,-0.71
2022-12-19T03:49:02.125Z,-0.75
2022-12-19T03:50:02.374Z,-0.75
2022-12-19T03:51:02.140Z,-0.71
2022-12-19T03:52:02.084Z,-0.76
2022-12-19T03:53:02.105Z,-0.76
2022-12-19T03:54:02.304Z,-0.75
2022-12-19T03:55:02.107Z,-0.78
2022-12-19T03:56:02.070Z,-0.73
2022-12-19T03:57:02.082Z,-0.76
2022-12-19T03:58:02.053Z,-0.75
2022-12-19T03:59:02.206Z,-0.73
2022-12-19T04:00:02.015Z,-0.70
2022-12-19T04:01:02.065Z,-0.70
2022-12-19T04:02:02.102Z,-0.73
2022-12-19T04:03:02.027Z,-0.68
2022-12-19T04:04:01.979Z,-0.64
2022-12-19T04:05:02.243Z,-0.70
2022-12-19T04:06:02.000Z,-0.67
2022-12-19T04:07:01.936Z,-0.64
2022-12-19T04:08:02.198Z,-0.63
2022-12-19T04:09:01.919Z,-0.60
2022-12-19T04:10:02.496Z,-0.60
2022-12-19T04:11:01.921Z,-0.60
2022-12-19T04:12:01.909Z,-0.53
2022-12-19T04:13:01.889Z,-0.58
2022-12-19T04:14:01.880Z,-0.57
2022-12-19T04:15:01.914Z,-0.60
2022-12-19T04:16:01.946Z,-0.58
2022-12-19T04:17:01.857Z,-0.63
2022-12-19T04:18:01.863Z,-0.63
2022-12-19T04:19:01.856Z,-0.61
2022-12-19T04:20:01.817Z,-0.67
2022-12-19T04:21:01.841Z,-0.71
2022-12-19T04:22:01.818Z,-0.73
2022-12-19T04:23:01.828Z,-0.76
2022-12-19T04:24:01.828Z,-0.76
2022-12-19T04:25:01.853Z,-0.78
2022-12-19T04:26:01.766Z,-0.78
2022-12-19T04:27:01.786Z,-0.76
2022-12-19T04:28:01.745Z,-0.76
2022-12-19T04:29:01.754Z,-0.76
2022-12-19T04:30:01.756Z,-0.73
2022-12-19T04:31:01.812Z,-0.75
2022-12-19T04:32:01.687Z,-0.68
2022-12-19T04:33:01.945Z,-0.75
2022-12-19T04:34:01.703Z,-0.71
2022-12-19T04:35:01.720Z,-0.71
2022-12-19T04:36:01.693Z,-0.71
2022-12-19T04:37:01.692Z,-0.68
2022-12-19T04:38:01.642Z,-0.66
2022-12-19T04:39:01.698Z,-0.61
2022-12-19T04:40:01.645Z,-0.53
2022-12-19T04:41:01.623Z,-0.39
2022-12-19T04:42:01.619Z,-0.31
2022-12-19T04:43:01.628Z,-0.27
2022-12-19T04:44:01.625Z,-0.29
2022-12-19T04:45:01.583Z,-0.32
2022-12-19T04:46:01.665Z,-0.31
2022-12-19T04:47:01.597Z,-0.29
2022-12-19T04:48:01.607Z,-0.35
2022-12-19T04:49:01.557Z,-0.42
2022-12-19T04:50:01.625Z,-0.47
2022-12-19T04:51:01.576Z,-0.50
2022-12-19T04:52:01.555Z,-0.57
2022-12-19T04:53:01.746Z,-0.47
2022-12-19T04:54:01.532Z,-0.43
2022-12-19T04:55:01.503Z,-0.39
2022-12-19T04:56:01.532Z,-0.42
2022-12-19T04:57:01.515Z,-0.43
2022-12-19T04:58:01.513Z,-0.42
2022-12-19T04:59:01.447Z,-0.45
2022-12-19T05:00:01.440Z,-0.38
2022-12-19T05:01:01.415Z,-0.38
2022-12-19T05:02:01.544Z,-0.28
2022-12-19T05:03:01.678Z,-0.27
2022-12-19T05:04:04.615Z,-0.24
2022-12-19T05:05:01.394Z,-0.21
2022-12-19T05:06:01.424Z,-0.16
2022-12-19T05:07:01.419Z,-0.16
2022-12-19T05:08:01.362Z,-0.22
2022-12-19T05:09:01.351Z,-0.25
2022-12-19T05:10:01.400Z,-0.31
2022-12-19T05:11:01.336Z,-0.35
2022-12-19T05:12:01.389Z,-0.34
2022-12-19T05:13:01.333Z,-0.39
2022-12-19T05:14:01.301Z,-0.38
2022-12-19T05:15:01.325Z,-0.42
2022-12-19T05:16:01.373Z,-0.45
2022-12-19T05:17:01.776Z,-0.49
2022-12-19T05:18:01.268Z,-0.53
2022-12-19T05:19:01.277Z,-0.47
2022-12-19T05:20:01.252Z,-0.50
2022-12-19T05:21:01.222Z,-0.53
2022-12-19T05:22:01.229Z,-0.46
2022-12-19T05:23:05.039Z,-0.49
2022-12-19T05:24:01.217Z,-0.52
2022-12-19T05:25:01.387Z,-0.39
2022-12-19T05:26:01.209Z,-0.38
2022-12-19T05:27:01.177Z,-0.34
2022-12-19T05:28:01.184Z,-0.32
2022-12-19T05:29:01.170Z,-0.34
2022-12-19T05:30:01.178Z,-0.35
2022-12-19T05:31:01.241Z,-0.35
2022-12-19T05:32:01.120Z,-0.35
2022-12-19T05:33:01.119Z,-0.39
2022-12-19T05:34:01.355Z,-0.40
2022-12-19T05:35:01.119Z,-0.40
2022-12-19T05:36:01.129Z,-0.43
2022-12-19T05:37:01.091Z,-0.40
2022-12-19T05:38:01.094Z,-0.39
2022-12-19T05:39:01.023Z,-0.43
2022-12-19T05:40:01.111Z,-0.45
2022-12-19T05:41:01.063Z,-0.49
2022-12-19T05:42:01.020Z,-0.45
2022-12-19T05:43:01.049Z,-0.43
2022-12-19T05:44:01.040Z,-0.45
2022-12-19T05:45:01.002Z,-0.45
2022-12-19T05:46:01.041Z,-0.40
2022-12-19T05:47:01.036Z,-0.39
2022-12-19T05:48:01.660Z,-0.38
2022-12-19T05:49:00.967Z,-0.40
2022-12-19T05:50:00.958Z,-0.42
2022-12-19T05:51:00.941Z,-0.39
2022-12-19T05:52:00.935Z,-0.39
2022-12-19T05:53:00.909Z,-0.39
2022-12-19T05:54:00.933Z,-0.38
2022-12-19T05:55:00.899Z,-0.35
2022-12-19T05:56:00.893Z,-0.32
2022-12-19T05:57:00.906Z,-0.31
2022-12-19T05:58:00.880Z,-0.31
2022-12-19T05:59:00.847Z,-0.29
2022-12-19T06:00:00.893Z,-0.27
2022-12-19T06:01:00.981Z,-0.21
2022-12-19T06:02:01.001Z,-0.20
2022-12-19T06:03:00.936Z,-0.14
2022-12-19T06:04:00.818Z,-0.11
2022-12-19T06:05:00.753Z,-0.17
2022-12-19T06:06:00.808Z,-0.16
2022-12-19T06:07:00.825Z,-0.20
2022-12-19T06:08:00.799Z,-0.16
2022-12-19T06:09:00.769Z,-0.16
2022-12-19T06:10:00.706Z,-0.13
2022-12-19T06:11:00.813Z,-0.14
2022-12-19T06:12:00.801Z,-0.11
2022-12-19T06:13:00.727Z,-0.06
2022-12-19T06:14:00.717Z,-0.09
2022-12-19T06:15:00.701Z,-0.04
2022-12-19T06:16:00.920Z,-0.06
2022-12-19T06:17:00.734Z,-0.07
2022-12-19T06:18:00.706Z,-0.11
2022-12-19T06:19:00.623Z,-0.14
2022-12-19T06:20:00.666Z,-0.13
2022-12-19T06:21:00.666Z,-0.14
2022-12-19T06:22:00.678Z,-0.17
2022-12-19T06:23:00.649Z,-0.14
2022-12-19T06:24:00.654Z,-0.21
2022-12-19T06:25:00.666Z,-0.14
2022-12-19T06:26:00.678Z,-0.21
2022-12-19T06:27:00.604Z,-0.21
2022-12-19T06:28:00.610Z,-0.20
2022-12-19T06:29:00.562Z,-0.13
2022-12-19T06:30:00.601Z,-0.09
2022-12-19T06:31:00.499Z,-0.11
2022-12-19T06:32:00.724Z,-0.06
2022-12-19T06:33:00.759Z,-0.03
2022-12-19T06:34:00.571Z,-0.01
2022-12-19T06:35:04.623Z,0.00
2022-12-19T06:36:00.500Z,-0.01
2022-12-19T06:37:03.056Z,-0.03
2022-12-19T06:38:01.136Z,0.02
2022-12-19T06:39:00.513Z,0.05
2022-12-19T06:40:00.412Z,0.11
2022-12-19T06:41:00.473Z,0.11
2022-12-19T06:42:00.407Z,0.09
2022-12-19T06:43:00.489Z,0.05
2022-12-19T06:44:00.470Z,0.02
2022-12-19T06:45:00.387Z,0.04
2022-12-19T06:46:00.549Z,0.07
2022-12-19T06:47:00.409Z,0.07
2022-12-19T06:48:00.499Z,0.12
2022-12-19T06:49:00.626Z,0.15
2022-12-19T06:50:00.374Z,0.23
2022-12-19T06:51:00.368Z,0.26
2022-12-19T06:52:02.952Z,0.26
2022-12-19T06:53:00.400Z,0.27
2022-12-19T06:54:00.379Z,0.20
2022-12-19T06:55:00.261Z,0.25
2022-12-19T06:56:00.343Z,0.22
2022-12-19T06:57:00.297Z,0.23
2022-12-19T06:58:00.235Z,0.18
2022-12-19T06:59:00.397Z,0.14
2022-12-19T07:00:00.232Z,0.11
2022-12-19T07:01:01.087Z,0.11
2022-12-19T07:02:00.460Z,0.12
2022-12-19T07:03:00.331Z,0.12
2022-12-19T07:04:00.233Z,0.15
2022-12-19T07:05:00.202Z,0.17
2022-12-19T07:06:00.224Z,0.17
2022-12-19T07:07:00.157Z,0.18
2022-12-19T07:08:00.146Z,0.18
2022-12-19T07:09:00.154Z,0.11
2022-12-19T07:10:00.176Z,0.08
2022-12-19T07:11:00.216Z,0.04
2022-12-19T07:12:00.120Z,-0.01
2022-12-19T07:13:00.102Z,0.00
2022-12-19T07:14:00.134Z,-0.04
2022-12-19T07:15:00.164Z,-0.04
2022-12-19T07:16:00.278Z,-0.04
2022-12-19T07:17:00.102Z,-0.03
2022-12-19T07:18:00.049Z,-0.03
2022-12-19T07:19:00.080Z,0.04
2022-12-19T07:20:00.041Z,0.04
2022-12-19T07:21:00.121Z,0.07
2022-12-19T07:22:00.089Z,0.09
2022-12-19T07:23:02.864Z,0.07
2022-12-19T07:23:59.986Z,0.09
2022-12-19T07:25:00.743Z,0.07
2022-12-19T07:26:00.011Z,0.09
2022-12-19T07:26:59.962Z,0.14
2022-12-19T07:28:00.002Z,0.12
2022-12-19T07:29:00.241Z,0.14
2022-12-19T07:29:59.957Z,0.14
2022-12-19T07:30:59.992Z,0.18
2022-12-19T07:31:59.969Z,0.20
2022-12-19T07:32:59.917Z,0.18
2022-12-19T07:33:59.915Z,0.23
2022-12-19T07:34:59.953Z,0.22
2022-12-19T07:35:59.895Z,0.23
2022-12-19T07:36:59.894Z,0.25
2022-12-19T07:37:59.863Z,0.23
2022-12-19T07:38:59.873Z,0.25
2022-12-19T07:39:59.821Z,0.29
2022-12-19T07:40:59.874Z,0.30
2022-12-19T07:41:59.867Z,0.27
2022-12-19T07:42:59.792Z,0.26
2022-12-19T07:43:59.791Z,0.27
2022-12-19T07:44:59.794Z,0.25
2022-12-19T07:46:00.059Z,0.25
2022-12-19T07:46:59.764Z,0.23
2022-12-19T07:47:59.793Z,0.20
2022-12-19T07:48:59.824Z,0.22
2022-12-19T07:49:59.744Z,0.22
2022-12-19T07:50:59.725Z,0.23
2022-12-19T07:51:59.750Z,0.23
2022-12-19T07:52:59.734Z,0.23
2022-12-19T07:53:59.767Z,0.25
2022-12-19T07:54:59.681Z,0.26
2022-12-19T07:55:59.733Z,0.23
2022-12-19T07:56:59.778Z,0.29
2022-12-19T07:57:59.738Z,0.29
2022-12-19T07:58:59.649Z,0.27
2022-12-19T07:59:59.639Z,0.29
2022-12-19T08:00:59.811Z,0.33
2022-12-19T08:01:59.841Z,0.40
2022-12-19T08:02:59.814Z,0.45
2022-12-19T08:03:59.651Z,0.47
2022-12-19T08:04:59.647Z,0.47
2022-12-19T08:05:59.790Z,0.50
2022-12-19T08:06:59.606Z,0.50
2022-12-19T08:07:59.568Z,0.51
2022-12-19T08:08:59.586Z,0.48
2022-12-19T08:09:59.605Z,0.50
2022-12-19T08:10:59.558Z,0.50
2022-12-19T08:11:59.563Z,0.45
2022-12-19T08:12:59.571Z,0.41
2022-12-19T08:13:59.540Z,0.43
2022-12-19T08:14:59.498Z,0.41
2022-12-19T08:15:59.493Z,0.41
2022-12-19T08:17:59.568Z,0.37
2022-12-19T08:18:59.476Z,0.40
2022-12-19T08:19:59.432Z,0.37
2022-12-19T08:20:59.436Z,0.40
2022-12-19T08:21:59.488Z,0.43
2022-12-19T08:22:59.442Z,0.41
2022-12-19T08:23:59.432Z,0.40
2022-12-19T08:24:59.462Z,0.35
2022-12-19T08:25:59.402Z,0.35
2022-12-19T08:26:59.393Z,0.36
2022-12-19T08:27:59.376Z,0.35
2022-12-19T08:28:59.721Z,0.33
2022-12-19T08:29:59.379Z,0.35
2022-12-19T08:30:59.445Z,0.37
2022-12-19T08:31:59.327Z,0.36
2022-12-19T08:32:59.320Z,0.44
2022-12-19T08:33:59.367Z,0.45
2022-12-19T08:34:59.311Z,0.50
2022-12-19T08:35:59.330Z,0.53
2022-12-19T08:36:59.330Z,0.50
2022-12-19T08:37:59.310Z,0.55
2022-12-19T08:38:59.260Z,0.56
2022-12-19T08:39:59.267Z,0.63
2022-12-19T08:40:59.241Z,0.60
2022-12-19T08:41:59.288Z,0.66
2022-12-19T08:42:59.240Z,0.69
2022-12-19T08:43:59.328Z,0.72
2022-12-19T08:44:59.216Z,0.73
2022-12-19T08:45:59.205Z,0.73
2022-12-19T08:46:59.195Z,0.72
2022-12-19T08:47:59.195Z,0.74
2022-12-19T08:48:59.169Z,0.73
2022-12-19T08:49:59.319Z,0.70
2022-12-19T08:50:59.182Z,0.62
2022-12-19T08:51:59.208Z,0.53
2022-12-19T08:52:59.146Z,0.48
2022-12-19T08:53:59.159Z,0.56
2022-12-19T08:54:59.137Z,0.63
2022-12-19T08:55:59.150Z,0.70
2022-12-19T08:56:59.173Z,0.72
2022-12-19T08:57:59.166Z,0.73
2022-12-19T08:58:59.066Z,0.74
2022-12-19T08:59:59.116Z,0.69
2022-12-19T09:01:05.006Z,0.70
2022-12-19T09:01:59.394Z,0.69
2022-12-19T09:02:59.267Z,0.69
2022-12-19T09:05:53.231Z,0.66
2022-12-19T09:06:12.149Z,0.67
2022-12-19T09:06:21.896Z,0.67
2022-12-19T09:07:17.472Z,0.67
2022-12-19T09:08:17.480Z,0.69
2022-12-19T09:09:17.512Z,0.70
2022-12-19T09:10:17.486Z,0.66
2022-12-19T09:11:17.517Z,0.56
2022-12-19T09:12:17.506Z,0.53
2022-12-19T09:13:17.617Z,0.50
2022-12-19T09:14:21.413Z,0.50
2022-12-19T09:15:17.757Z,0.50
2022-12-19T09:16:17.540Z,0.50
2022-12-19T09:17:17.607Z,0.55
2022-12-19T09:18:17.465Z,0.59
2022-12-19T09:19:17.379Z,0.62
2022-12-19T09:20:22.976Z,0.64
2022-12-19T09:21:17.347Z,0.67
2022-12-19T09:22:17.345Z,0.70
2022-12-19T09:23:18.547Z,0.74
2022-12-19T09:24:17.322Z,0.74
2022-12-19T09:25:17.318Z,0.74
2022-12-19T09:26:17.324Z,0.80
2022-12-19T09:27:17.315Z,0.81
2022-12-19T09:28:27.380Z,0.85
2022-12-19T09:29:21.065Z,0.85
2022-12-19T09:30:17.281Z,0.91
2022-12-19T09:31:17.337Z,0.92
2022-12-19T09:32:17.467Z,0.91
2022-12-19T09:33:17.260Z,0.88
2022-12-19T09:34:17.219Z,0.91
2022-12-19T09:35:17.208Z,0.88
2022-12-19T09:36:17.201Z,0.87
2022-12-19T09:37:18.005Z,0.87
2022-12-19T09:38:17.191Z,0.85
2022-12-19T09:39:17.170Z,0.85
2022-12-19T09:40:17.170Z,0.84
2022-12-19T09:41:18.063Z,0.87
2022-12-19T09:42:17.265Z,0.88
2022-12-19T09:43:17.168Z,0.91
2022-12-19T09:44:17.144Z,0.91
2022-12-19T09:45:18.882Z,0.88
2022-12-19T09:46:17.189Z,0.88
2022-12-19T09:47:17.077Z,0.87
2022-12-19T09:48:23.738Z,0.85
2022-12-19T09:49:17.102Z,0.88
2022-12-19T09:50:17.230Z,0.88
2022-12-19T09:51:17.059Z,0.90
2022-12-19T09:52:17.058Z,0.91
2022-12-19T09:53:17.028Z,0.96
2022-12-19T09:54:17.021Z,0.98
2022-12-19T09:55:17.314Z,0.96
2022-12-19T09:56:17.072Z,0.99
2022-12-19T09:57:17.014Z,0.94
2022-12-19T09:58:16.985Z,0.90
2022-12-19T09:59:17.027Z,0.96
2022-12-19T10:00:16.974Z,0.94
2022-12-19T10:01:17.178Z,0.96
2022-12-19T10:02:17.186Z,1.00
2022-12-19T10:03:17.178Z,1.00
2022-12-19T10:04:16.956Z,1.03
2022-12-19T10:05:44.778Z,1.00
2022-12-19T10:07:31.417Z,1.05
2022-12-19T10:08:08.501Z,1.05
2022-12-19T10:08:20.888Z,0.98
2022-12-19T10:12:05.108Z,0.91
2022-12-19T10:12:53.848Z,0.87
2022-12-19T10:13:03.638Z,0.90
2022-12-19T10:14:00.835Z,0.87
2022-12-19T10:15:00.812Z,0.91
2022-12-19T10:16:00.968Z,0.94
2022-12-19T10:17:25.653Z,0.94
2022-12-19T10:18:00.844Z,0.90
2022-12-19T10:19:00.868Z,0.96
2022-12-19T10:20:00.890Z,1.02
2022-12-19T10:21:00.893Z,1.05
2022-12-19T10:23:00.980Z,1.16
2022-12-19T10:24:00.811Z,1.17
2022-12-19T10:25:08.457Z,1.12
2022-12-19T10:26:00.725Z,1.12
2022-12-19T10:27:00.681Z,1.08
2022-12-19T10:28:00.843Z,1.08
2022-12-19T10:29:03.030Z,1.08
2022-12-19T10:30:00.657Z,1.08
2022-12-19T10:31:07.304Z,1.05
2022-12-19T10:32:00.739Z,1.06
2022-12-19T10:33:00.651Z,1.05
2022-12-19T10:34:00.751Z,1.05
2022-12-19T10:35:00.617Z,1.09
2022-12-19T10:36:02.239Z,1.06
2022-12-19T10:37:28.785Z,1.05
2022-12-19T10:38:00.625Z,1.08
2022-12-19T10:39:00.624Z,1.12
2022-12-19T10:40:00.632Z,1.18
2022-12-19T10:41:00.619Z,1.09
2022-12-19T10:42:00.576Z,1.08
2022-12-19T10:43:04.638Z,1.03
2022-12-19T10:44:00.580Z,1.08
2022-12-19T10:45:00.545Z,1.08
2022-12-19T10:46:00.694Z,1.05
2022-12-19T10:47:00.647Z,1.08
2022-12-19T10:48:00.545Z,1.10
2022-12-19T10:49:00.522Z,1.13
2022-12-19T10:50:07.318Z,1.24
2022-12-19T10:51:05.209Z,1.26
2022-12-19T10:52:00.459Z,1.30
2022-12-19T10:53:00.468Z,1.34
2022-12-19T10:54:00.418Z,1.36
2022-12-19T10:55:00.456Z,1.34
2022-12-19T10:56:00.414Z,1.31
2022-12-19T10:57:00.413Z,1.28
2022-12-19T10:58:00.431Z,1.31
2022-12-19T10:59:00.494Z,1.34
2022-12-19T11:00:00.456Z,1.31
2022-12-19T11:01:00.366Z,1.38
2022-12-19T11:02:02.453Z,1.36
2022-12-19T11:03:00.563Z,1.36
2022-12-19T11:04:00.324Z,1.38
2022-12-19T11:05:00.446Z,1.36
2022-12-19T11:06:00.321Z,1.36
2022-12-19T11:07:00.291Z,1.39
2022-12-19T11:08:00.296Z,1.41
2022-12-19T11:09:00.274Z,1.38
2022-12-19T11:10:38.512Z,1.30
2022-12-19T11:16:13.476Z,1.31
2022-12-19T11:29:40.715Z,1.26
2022-12-19T11:33:15.631Z,1.66
2022-12-19T11:34:15.135Z,1.62
2022-12-19T11:35:15.138Z,1.62
2022-12-19T11:36:15.134Z,1.63
2022-12-19T11:37:15.142Z,1.67
2022-12-19T11:38:15.124Z,1.64
2022-12-19T11:39:15.038Z,1.62
2022-12-19T11:40:15.127Z,1.63
2022-12-19T11:41:15.041Z,1.66
2022-12-19T11:42:15.006Z,1.66
2022-12-19T11:44:15.037Z,1.73
2022-12-19T11:45:15.015Z,1.66
2022-12-19T11:46:21.438Z,1.66
2022-12-19T11:47:14.965Z,1.62
2022-12-19T11:48:15.039Z,1.63
2022-12-19T11:49:14.996Z,1.62
2022-12-19T11:50:15.132Z,1.69
2022-12-19T11:51:14.961Z,1.69
2022-12-19T11:52:37.062Z,1.71
2022-12-19T11:53:19.140Z,1.78
2022-12-19T11:54:14.969Z,1.78
2022-12-19T11:55:14.905Z,1.77
2022-12-19T11:56:16.292Z,1.78
2022-12-19T11:57:14.890Z,1.80
2022-12-19T11:58:14.870Z,1.82
2022-12-19T11:59:14.880Z,1.85
2022-12-19T12:00:14.871Z,1.82
2022-12-19T12:01:14.849Z,1.74
2022-12-19T12:02:14.849Z,1.62
2022-12-19T12:03:14.881Z,1.59
2022-12-19T12:04:15.074Z,1.62
2022-12-19T12:05:14.816Z,1.69
2022-12-19T12:06:14.789Z,1.75
2022-12-19T12:07:26.788Z,1.78
2022-12-19T12:11:35.022Z,1.82
2022-12-19T12:31:01.689Z,1.85
2022-12-19T12:35:33.274Z,1.89
2022-12-19T12:38:27.676Z,1.97
2022-12-19T12:39:04.365Z,1.95
2022-12-19T12:40:04.068Z,2.00
2022-12-19T12:41:04.015Z,1.95
2022-12-19T12:42:04.016Z,1.93
2022-12-19T12:43:04.011Z,1.93
2022-12-19T12:44:04.047Z,1.95
2022-12-19T12:45:03.994Z,1.95
2022-12-19T12:46:04.044Z,1.99
2022-12-19T12:47:03.986Z,1.97
2022-12-19T12:48:04.005Z,1.99
2022-12-19T12:49:03.972Z,2.00
2022-12-19T12:50:03.930Z,2.03
2022-12-19T12:51:03.979Z,2.03
2022-12-19T12:52:03.981Z,2.00
2022-12-19T12:53:03.953Z,2.00
2022-12-19T12:54:03.943Z,1.97
2022-12-19T12:55:03.889Z,2.01
2022-12-19T12:56:05.665Z,2.00
2022-12-19T12:57:04.133Z,1.93
2022-12-19T12:58:05.327Z,1.91
2022-12-19T12:59:03.819Z,1.82
2022-12-19T13:00:03.824Z,1.78
2022-12-19T13:01:03.843Z,1.69
2022-12-19T13:02:04.041Z,1.64
2022-12-19T13:03:03.978Z,1.63
2022-12-19T13:04:03.815Z,1.66
2022-12-19T13:05:03.763Z,1.71
2022-12-19T13:06:03.827Z,1.73
2022-12-19T13:07:03.810Z,1.80
2022-12-19T13:08:03.798Z,1.80
2022-12-19T13:09:03.835Z,1.80
2022-12-19T13:10:03.733Z,1.73
2022-12-19T13:11:03.788Z,1.74
2022-12-19T13:12:03.705Z,1.74
2022-12-19T13:13:05.151Z,1.77
2022-12-19T13:14:03.707Z,1.80
2022-12-19T13:15:03.766Z,1.85
2022-12-19T13:16:03.667Z,1.84
2022-12-19T13:17:03.725Z,1.85
2022-12-19T13:18:03.658Z,1.95
2022-12-19T13:19:03.648Z,1.93
2022-12-19T13:20:03.679Z,1.99
2022-12-19T13:21:03.704Z,1.99
2022-12-19T13:22:03.623Z,2.00
2022-12-19T13:23:03.639Z,2.03
2022-12-19T13:24:03.618Z,2.03
2022-12-19T13:25:03.621Z,2.10
2022-12-19T13:26:03.637Z,2.11
2022-12-19T13:27:03.569Z,2.14
2022-12-19T13:28:03.546Z,2.14
2022-12-19T13:29:03.538Z,2.11
2022-12-19T13:30:03.607Z,2.07
2022-12-19T13:31:19.450Z,1.92
2022-12-19T13:32:03.668Z,1.91
2022-12-19T13:33:03.495Z,1.84
2022-12-19T13:34:03.571Z,1.85
2022-12-19T13:35:44.613Z,1.87
2022-12-19T13:40:10.766Z,1.89
2022-12-19T13:40:20.563Z,1.77
2022-12-19T13:41:03.958Z,1.77
2022-12-19T13:42:03.893Z,1.77
2022-12-19T13:43:10.881Z,1.81
2022-12-19T13:44:03.831Z,1.87
2022-12-19T13:45:03.820Z,1.89
2022-12-19T13:46:04.201Z,1.91
2022-12-19T13:47:03.875Z,1.91
2022-12-19T13:48:05.244Z,2.00
2022-12-19T13:49:03.814Z,1.95
2022-12-19T13:50:03.739Z,1.97
2022-12-19T13:51:03.756Z,1.93
2022-12-19T13:52:03.765Z,1.97
2022-12-19T13:53:03.740Z,2.00
2022-12-19T13:54:03.702Z,2.00
2022-12-19T13:55:03.691Z,2.01
2022-12-19T13:56:03.685Z,2.04
2022-12-19T13:57:09.155Z,2.01
2022-12-19T13:58:03.685Z,2.04
2022-12-19T13:59:03.706Z,2.03
2022-12-19T14:00:03.761Z,2.04
2022-12-19T14:01:06.259Z,2.01